MATARÓ (Maresme)





Hora UTC 07:50
Temperatura 22.6 ºC
Humedad 89.4 %
Presión 1008.3 hPa
Pluja 8.8 mm
Velocidad viento 4.9 km/h
Dirección viento SSE
Radiación solar 29.5 W/m²

Datos diarios 2024-07-21



Hora UTC (invierno +1h; verano +2h)
Temperatura (ºC) Humedad (%) Presión (hPa) Velocidad viento (km/h) Precipitación (mm) Radiación solar (W/m²)
Hora UTC Aire Humedad Presión Vel. Dir. Vel. Max Dir. Intent. máx 5 min. Rad. Sol.
00:05 24.2 90.9 1005.8 0.8 NE 0.8 NE 0.0 0.1
00:10 24.1 91.0 1005.7 0.9 NNE 3.2 NNE 0.0 0.1
00:15 24.1 90.8 1005.8 0.8 WNW 6.4 W 0.0 0.1
00:20 24.0 90.9 1005.9 0.9 NW 4.2 N 0.0 0.1
00:25 24.0 91.4 1005.9 1.7 NNW 4.9 NNW 0.0 0.1
00:30 24.1 91.5 1005.9 0.7 NNE 2.1 NNE 0.0 0.1
00:35 24.1 91.2 1005.9 1.1 NE 2.5 NE 0.0 0.1
00:40 24.0 91.1 1006.1 0.8 W 3.2 W 0.0 0.1
00:45 23.9 91.0 1006.1 2.9 NW 4.2 W 0.0 0.1
00:50 23.9 91.3 1005.9 2.9 NNW 4.9 NNW 0.0 0.1
00:55 23.9 90.8 1005.8 3.4 NNE 4.9 NNE 0.0 0.1
01:00 24.0 90.5 1005.7 1.2 N 3.2 NNW 0.0 0.1
01:05 24.0 89.8 1005.9 3.1 NW 4.9 WNW 0.0 0.1
01:10 24.0 89.6 1005.9 3.6 WNW 5.6 NW 0.0 0.1
01:15 23.9 89.6 1005.9 4.3 NW 6.7 WNW 0.0 0.1
01:20 23.9 89.4 1005.8 3.4 NW 4.9 WNW 0.0 0.1
01:25 24.0 88.9 1005.8 4.8 NW 7.4 WNW 0.0 0.1
01:30 23.9 88.6 1005.7 3.8 NW 5.6 NW 0.0 0.1
01:35 23.9 88.1 1005.7 5.1 N 6.7 N 0.0 0.1
01:40 23.9 86.9 1005.7 3.8 N 6.0 N 0.0 0.1
01:45 23.9 86.4 1005.9 4.2 N 6.4 N 0.0 0.1
01:50 23.9 85.9 1005.8 5.2 NNE 7.8 N 0.0 0.1
01:55 23.8 85.2 1005.7 7.0 NNE 10.2 NNE 0.0 0.1
02:00 23.9 84.9 1005.6 3.5 N 7.8 NNE 0.0 0.1
02:05 23.8 85.0 1005.6 3.7 NNW 4.6 NNW 0.0 0.1
02:10 23.6 85.4 1005.6 4.9 NNW 6.7 N 0.0 0.1
02:15 23.6 84.9 1005.7 5.9 NNW 7.4 N 0.0 0.1
02:20 23.6 83.6 1005.7 5.9 NNW 7.4 NW 0.0 0.1
02:25 23.8 81.7 1005.9 7.7 NNW 10.2 NNW 0.0 0.1
02:30 24.1 79.3 1005.9 7.6 NNW 9.9 NW 0.0 0.1
02:35 24.3 78.5 1005.8 7.7 NNW 10.6 NNW 0.0 0.1
02:40 24.4 78.2 1005.8 10.0 NNW 13.4 NNW 0.0 0.1
02:45 24.6 77.0 1005.8 7.6 NNW 11.6 NW 0.0 0.1
02:50 24.7 76.0 1005.9 5.8 N 10.6 NNE 0.0 0.1
02:55 24.7 76.5 1005.8 6.5 N 12.7 NNE 0.0 0.1
03:00 24.7 77.3 1005.8 5.5 N 10.6 N 0.0 0.1
03:05 24.6 77.9 1005.8 5.4 N 8.8 0.0 0.1
03:10 24.5 78.3 1005.8 5.8 N 13.1 N 0.0 0.1
03:15 24.5 78.4 1005.9 2.3 N 6.4 NNE 0.0 0.1
03:20 24.5 78.8 1006.0 3.6 NNW 7.1 NNW 0.0 0.1
03:25 24.3 79.4 1006.0 2.2 NNW 4.6 NW 0.0 0.1
03:30 24.2 79.7 1006.0 2.0 NNW 4.2 NW 0.0 0.1
03:35 24.1 79.8 1006.1 2.6 N 8.1 NNE 0.0 0.1
03:40 24.1 79.7 1006.0 3.0 N 7.8 NNE 0.0 0.1
03:45 24.1 79.7 1006.0 2.1 NNW 7.8 NNE 0.0 0.1
03:50 24.1 79.7 1006.1 2.9 N 9.5 NNE 0.0 0.1
03:55 24.1 79.5 1006.2 0.8 SSW 7.1 SSW 0.0 0.1
04:00 24.1 79.3 1006.3 1.6 SSW 4.6 SSW 0.0 0.1
04:05 24.1 78.9 1006.3 3.3 SW 6.7 WSW 0.0 0.1
04:10 24.2 77.5 1006.3 3.8 SE 7.8 SE 0.0 0.1
04:15 24.4 76.8 1006.3 3.1 SE 7.8 E 0.0 0.1
04:20 24.4 76.6 1006.4 3.7 SE 8.5 E 0.0 0.3
04:25 24.4 76.6 1006.4 4.1 SE 11.3 ESE 0.0 0.6
04:30 24.4 77.1 1006.4 5.2 SE 10.2 SSE 0.0 1.1
04:35 24.4 77.9 1006.5 5.7 SE 12.7 ESE 0.0 1.8
04:40 24.3 78.7 1006.5 5.6 SE 13.1 SE 0.0 3.0
04:45 24.2 79.7 1006.5 4.2 ESE 13.4 SE 0.0 5.1
04:50 24.2 81.4 1006.5 4.1 SE 13.1 E 0.0 6.5
04:55 24.2 82.5 1006.7 2.2 SE 9.2 ENE 0.0 9.0
05:00 24.2 83.1 1006.8 4.9 ESE 10.9 E 0.0 14.8
05:05 24.3 83.9 1006.9 3.9 SE 10.6 ESE 0.0 19.9
05:10 24.4 84.0 1006.9 3.0 SE 8.8 E 0.0 28.4
05:15 24.5 84.0 1007.0 7.3 ESE 15.5 ESE 0.0 37.8
05:20 24.6 84.1 1007.0 7.7 ESE 12.7 SE 0.0 34.0
05:25 24.7 84.7 1007.0 6.9 SE 12.0 E 0.0 31.0
05:30 24.7 85.5 1007.1 8.1 ESE 20.5 ESE 0.0 16.3
05:35 24.7 83.5 1007.2 10.3 SE 18.0 SSE 0.0 13.2
05:40 24.7 81.5 1007.2 10.5 SE 19.1 SE 0.0 13.1
05:45 24.6 81.6 1007.3 7.8 SE 15.5 SE 0.0 36.6
05:50 24.5 80.9 1007.3 4.9 SE 10.9 SE 0.0 42.3
05:55 24.5 79.7 1007.3 8.9 SE 16.6 SE 0.0 25.1
06:00 24.5 79.3 1007.3 10.4 SE 18.0 SE 0.0 64.7
06:05 24.6 76.3 1007.3 9.3 SE 16.2 SSE 0.0 129.4
06:10 24.8 74.1 1007.3 8.5 SE 18.0 E 0.0 93.4
06:15 24.9 73.1 1007.2 6.5 SE 14.1 ESE 0.0 136.2
06:20 25.0 72.3 1007.3 4.1 ESE 10.2 ESE 0.0 104.1
06:25 25.0 71.9 1007.4 3.0 SSE 6.0 SSE 0.0 141.5
06:30 25.3 71.2 1007.4 3.2 SSE 6.0 SE 0.0 180.4
06:35 25.4 70.3 1007.4 1.9 S 4.2 S 0.0 135.3
06:40 25.5 70.2 1007.4 3.0 SSE 5.6 SSW 0.0 213.5
06:45 25.7 69.6 1007.5 2.9 E 5.6 ESE 0.0 157.4
06:50 25.8 69.4 1007.4 2.3 NNW 4.9 W 0.0 126.5
06:55 25.9 69.4 1007.3 4.0 WNW 7.4 W 0.0 122.9
07:00 25.9 70.0 1007.4 3.5 W 8.8 WNW 0.0 57.3
07:05 25.9 72.1 1007.0 2.7 SE 6.7 SE 0.1 50.1
07:10 25.5 74.6 1007.3 7.5 SE 11.3 SE 0.5 24.2
07:15 24.8 77.8 1007.6 7.4 SE 12.0 SE 1.5 15.3
07:20 24.0 81.3 1007.6 5.5 E 12.0 ESE 4.2 12.2
07:25 23.4 83.9 1007.8 5.4 N 10.2 NNW 2.2 22.7
07:30 22.9 88.1 1007.6 5.9 NNW 10.2 NNW 0.2 40.9
07:35 22.9 89.2 1007.9 2.1 WSW 3.9 W 0.1 34.4
07:40 23.0 89.8 1008.3 11.5 SSW 20.5 WSW 0.0 21.0
07:45 22.8 90.6 1008.3 8.3 S 16.2 SSE 0.0 25.6
07:50 22.6 89.4 1008.3 4.9 SSE 9.5 SSW 0.0 29.5
Máxima 26.0 91.5 1008.3 11.5 SSW 20.5 WSW 4.2 213.5
Mínima 20 69.4 1005.6
Total 8.8